createdAt,value
2023-03-20T00:02:23.204Z,29.42
2023-03-20T00:07:27.476Z,26.35
2023-03-20T00:12:32.602Z,24.65
2023-03-20T00:17:35.806Z,22.25
2023-03-20T00:22:38.917Z,26.95
2023-03-20T00:27:43.798Z,25.77
2023-03-20T00:32:47.060Z,21.58
2023-03-20T00:37:50.480Z,24.77
2023-03-20T00:42:58.270Z,26.23
2023-03-20T00:48:01.865Z,22.10
2023-03-20T00:53:05.274Z,26.60
2023-03-20T00:58:11.078Z,24.27
2023-03-20T01:03:17.038Z,25.55
2023-03-20T01:08:21.747Z,28.02
2023-03-20T01:13:27.639Z,29.98
2023-03-20T01:18:30.899Z,33.00
2023-03-20T01:23:34.029Z,38.03
2023-03-20T01:28:39.307Z,30.88
2023-03-20T01:33:42.753Z,32.20
2023-03-20T01:38:46.062Z,24.55
2023-03-20T01:43:53.548Z,27.13
2023-03-20T01:48:58.468Z,29.00
2023-03-20T01:54:06.095Z,33.38
2023-03-20T01:59:14.719Z,24.88
2023-03-20T02:04:22.370Z,24.13
2023-03-20T02:09:31.008Z,22.15
2023-03-20T02:14:37.091Z,22.45
2023-03-20T02:19:56.375Z,27.15
2023-03-20T02:25:16.561Z,20.27
2023-03-20T02:30:35.966Z,18.75
2023-03-20T02:36:07.042Z,17.70
2023-03-20T02:41:15.042Z,12.47
2023-03-20T02:46:25.263Z,15.35
2023-03-20T02:51:32.313Z,14.10
2023-03-20T02:56:39.015Z,14.00
2023-03-20T03:01:43.258Z,15.63
2023-03-20T03:06:48.918Z,10.35
2023-03-20T03:11:54.709Z,11.20
2023-03-20T03:16:58.677Z,15.60
2023-03-20T03:22:04.177Z,12.63
2023-03-20T03:27:13.514Z,15.43
2023-03-20T03:32:22.050Z,16.80
2023-03-20T03:37:29.261Z,22.77
2023-03-20T03:42:34.696Z,17.65
2023-03-20T03:47:39.869Z,17.83
2023-03-20T03:52:44.413Z,19.77
2023-03-20T03:57:51.854Z,18.70
2023-03-20T04:02:57.002Z,24.83
2023-03-20T04:08:00.817Z,21.88
2023-03-20T04:13:05.479Z,27.83
2023-03-20T04:18:08.941Z,29.05
2023-03-20T04:23:15.233Z,29.10
2023-03-20T04:28:20.174Z,37.67
2023-03-20T04:33:32.825Z,34.25
2023-03-20T04:38:41.026Z,34.42
2023-03-20T04:43:45.632Z,33.15
2023-03-20T04:48:49.740Z,29.05
2023-03-20T04:53:53.195Z,29.52
2023-03-20T04:58:57.895Z,37.22
2023-03-20T05:04:01.610Z,31.17
2023-03-20T05:09:09.637Z,30.35
2023-03-20T05:14:15.374Z,25.45
2023-03-20T05:19:36.791Z,25.55
2023-03-20T05:24:56.738Z,20.20
2023-03-20T05:30:19.739Z,28.65
2023-03-20T05:35:46.514Z,22.70
2023-03-20T05:41:15.803Z,24.02
2023-03-20T05:46:37.015Z,21.52
2023-03-20T05:52:06.430Z,24.23
2023-03-20T05:57:35.592Z,25.45
2023-03-20T06:02:58.858Z,24.80
2023-03-20T06:08:21.678Z,22.45
2023-03-20T06:13:25.033Z,25.55
2023-03-20T06:18:29.815Z,26.35
2023-03-20T06:23:33.066Z,25.67
2023-03-20T06:28:38.614Z,25.40
2023-03-20T06:33:45.567Z,29.60
2023-03-20T06:38:49.181Z,26.63
2023-03-20T06:43:53.521Z,22.30
2023-03-20T06:48:59.630Z,25.23
2023-03-20T06:54:02.865Z,20.42
2023-03-20T06:59:07.538Z,22.90
2023-03-20T07:04:12.488Z,21.27
2023-03-20T07:09:23.372Z,19.58
2023-03-20T07:14:26.889Z,23.15
2023-03-20T07:19:38.136Z,22.17
2023-03-20T07:24:42.230Z,25.13
2023-03-20T07:29:47.741Z,23.45
2023-03-20T07:34:55.695Z,25.08
2023-03-20T07:39:59.268Z,21.55
2023-03-20T07:45:09.423Z,20.70
2023-03-20T07:50:13.988Z,17.25
2023-03-20T07:55:18.871Z,17.35
2023-03-20T08:00:22.409Z,19.23
2023-03-20T08:05:27.409Z,20.23
2023-03-20T08:10:30.808Z,21.63
2023-03-20T08:15:34.083Z,20.08
2023-03-20T08:20:38.765Z,18.92
2023-03-20T08:25:42.098Z,21.73
2023-03-20T08:30:45.411Z,17.00
2023-03-20T08:35:57.327Z,18.05
2023-03-20T08:41:00.528Z,22.30
2023-03-20T08:46:03.669Z,20.08
2023-03-20T08:51:08.629Z,17.63
2023-03-20T08:56:12.139Z,18.35
2023-03-20T09:01:16.468Z,17.08
2023-03-20T09:06:21.560Z,17.30
2023-03-20T09:11:24.842Z,21.73
2023-03-20T09:16:28.280Z,21.67
2023-03-20T09:21:32.801Z,17.42
2023-03-20T09:26:36.102Z,14.63
2023-03-20T09:31:39.396Z,18.60
2023-03-20T09:36:43.940Z,15.55
2023-03-20T09:41:56.608Z,18.13
2023-03-20T09:47:19.351Z,15.18
2023-03-20T09:52:27.523Z,16.38
2023-03-20T09:57:32.720Z,17.33
2023-03-20T10:02:40.579Z,20.02
2023-03-20T10:07:45.040Z,18.15
2023-03-20T10:12:51.759Z,15.32
2023-03-20T10:17:58.695Z,17.50
2023-03-20T10:23:07.604Z,20.52
2023-03-20T10:28:13.237Z,21.20
2023-03-20T10:33:29.594Z,16.48
2023-03-20T10:38:37.969Z,15.98
2023-03-20T10:43:43.478Z,12.82
2023-03-20T10:48:48.992Z,9.70
2023-03-20T10:53:56.104Z,14.80
2023-03-20T10:59:00.830Z,11.75
2023-03-20T11:04:04.003Z,14.18
2023-03-20T11:09:13.532Z,12.63
2023-03-20T11:14:19.442Z,12.52
2023-03-20T11:19:23.318Z,12.75
2023-03-20T11:24:35.576Z,14.68
2023-03-20T11:29:39.292Z,14.32
2023-03-20T11:34:43.467Z,13.90
2023-03-20T11:39:57.426Z,12.27
2023-03-20T11:45:02.919Z,13.70
2023-03-20T11:50:07.307Z,11.43
2023-03-20T11:55:24.502Z,10.65
2023-03-20T12:00:29.423Z,13.40
2023-03-20T12:05:34.098Z,17.67
2023-03-20T12:10:41.561Z,11.10
2023-03-20T12:15:47.153Z,12.60
2023-03-20T12:20:56.783Z,13.88
2023-03-20T12:26:04.288Z,12.30
2023-03-20T12:31:13.846Z,12.77
2023-03-20T12:36:17.897Z,16.05
2023-03-20T12:41:25.957Z,16.00
2023-03-20T12:46:32.727Z,17.90
2023-03-20T12:51:41.775Z,27.35
2023-03-20T12:56:52.669Z,18.92
2023-03-20T13:01:57.733Z,20.08
2023-03-20T13:07:01.519Z,17.88
2023-03-20T13:12:10.070Z,21.50
2023-03-20T13:17:16.785Z,18.80
2023-03-20T13:22:24.159Z,22.45
2023-03-20T13:27:34.261Z,18.75
2023-03-20T13:32:46.020Z,22.52
2023-03-20T13:37:50.576Z,22.48
2023-03-20T13:42:56.495Z,24.88
2023-03-20T13:48:02.265Z,16.13
2023-03-20T13:53:09.856Z,18.10
2023-03-20T13:58:20.454Z,24.50
2023-03-20T14:03:26.312Z,14.63
2023-03-20T14:08:36.981Z,25.00
2023-03-20T14:13:45.517Z,16.92
2023-03-20T14:18:49.721Z,23.50
2023-03-20T14:23:58.375Z,23.70
2023-03-20T14:29:03.661Z,23.63
2023-03-20T14:34:16.236Z,23.05
2023-03-20T14:39:40.724Z,23.30
2023-03-20T14:44:52.811Z,24.85
2023-03-20T14:49:59.706Z,23.63
2023-03-20T14:55:16.498Z,26.63
2023-03-20T15:00:22.875Z,22.42
2023-03-20T15:05:29.328Z,20.08
2023-03-20T15:10:35.319Z,25.83
2023-03-20T15:15:40.202Z,24.60
2023-03-20T15:20:45.334Z,19.67
2023-03-20T15:25:49.408Z,25.33
2023-03-20T15:30:56.622Z,29.67
2023-03-20T15:36:00.001Z,24.20
2023-03-20T15:41:05.314Z,21.58
2023-03-20T15:46:19.126Z,24.25
2023-03-20T15:51:24.577Z,18.83
2023-03-20T15:56:28.282Z,25.13
2023-03-20T16:01:33.259Z,24.98
2023-03-20T16:06:36.376Z,20.17
2023-03-20T16:11:40.459Z,23.17
2023-03-20T16:16:45.369Z,31.40
2023-03-20T16:21:51.561Z,25.42
2023-03-20T16:26:54.925Z,23.58
2023-03-20T16:32:00.402Z,22.40
2023-03-20T16:37:07.362Z,19.75
2023-03-20T16:42:13.115Z,24.55
2023-03-20T16:47:20.155Z,21.70
2023-03-20T16:52:26.794Z,22.95
2023-03-20T16:57:34.240Z,22.67
2023-03-20T17:02:41.010Z,29.27
2023-03-20T17:07:44.234Z,28.52
2023-03-20T17:12:48.071Z,27.75
2023-03-20T17:17:52.554Z,21.35
2023-03-20T17:22:55.740Z,26.05
2023-03-20T17:27:58.940Z,22.15
2023-03-20T17:33:03.557Z,21.10
2023-03-20T17:38:06.714Z,22.55
2023-03-20T17:43:11.389Z,20.40
2023-03-20T17:48:17.002Z,27.13
2023-03-20T17:53:20.914Z,24.33
2023-03-20T17:58:24.608Z,23.25
2023-03-20T18:03:29.118Z,23.23
2023-03-20T18:08:32.378Z,24.30
2023-03-20T18:13:35.539Z,23.92
2023-03-20T18:18:39.998Z,26.00
2023-03-20T18:23:43.247Z,19.90
2023-03-20T18:28:46.374Z,21.35
2023-03-20T18:33:52.021Z,29.33
2023-03-20T18:38:55.265Z,26.75
2023-03-20T18:43:58.648Z,30.77
2023-03-20T18:49:03.099Z,24.80
2023-03-20T18:54:07.019Z,24.58
2023-03-20T18:59:12.633Z,23.15
2023-03-20T19:04:17.174Z,26.00
2023-03-20T19:09:20.372Z,26.52
2023-03-20T19:14:25.753Z,17.50
2023-03-20T19:19:30.217Z,28.05
2023-03-20T19:24:33.420Z,28.33
2023-03-20T19:29:36.540Z,27.30
2023-03-20T19:35:29.766Z,33.00
2023-03-20T19:40:05.059Z,25.55
2023-03-20T19:45:09.354Z,24.80
2023-03-20T19:50:25.511Z,31.85
2023-03-20T19:55:28.923Z,31.92
2023-03-20T20:01:11.150Z,32.15
2023-03-20T20:05:59.302Z,31.90
2023-03-20T20:11:02.408Z,27.90
2023-03-20T20:16:05.931Z,29.70
2023-03-20T20:26:38.992Z,33.67
2023-03-20T20:31:44.810Z,31.50
2023-03-20T20:42:12.451Z,35.17
2023-03-20T20:47:15.769Z,42.38
2023-03-20T20:52:20.417Z,35.15
2023-03-20T20:57:23.639Z,37.95
2023-03-20T21:02:27.414Z,33.85
2023-03-20T21:07:32.103Z,32.92
2023-03-20T21:12:45.378Z,38.95
2023-03-20T21:18:01.620Z,45.63
2023-03-20T21:23:06.427Z,38.53
2023-03-20T21:28:09.624Z,36.55
2023-03-20T21:33:12.867Z,38.63
2023-03-20T21:43:41.541Z,56.42
2023-03-20T22:00:05.361Z,36.80
2023-03-20T22:11:10.658Z,44.67
2023-03-20T22:16:27.144Z,38.75
2023-03-20T22:21:48.429Z,37.22
2023-03-20T22:38:17.486Z,33.17
2023-03-20T22:42:57.304Z,35.45
2023-03-20T22:48:06.461Z,35.83
2023-03-20T22:53:09.557Z,35.00
2023-03-20T22:58:15.401Z,32.95
2023-03-20T23:03:33.436Z,44.50
2023-03-20T23:08:49.322Z,33.28
2023-03-20T23:13:57.220Z,38.88
2023-03-20T23:19:00.615Z,40.72
2023-03-20T23:24:03.708Z,35.00
2023-03-20T23:29:08.170Z,31.05
2023-03-20T23:34:11.313Z,35.63
2023-03-20T23:39:15.330Z,39.15
2023-03-20T23:44:19.859Z,36.80
2023-03-20T23:49:23.128Z,36.17
2023-03-20T23:54:26.328Z,36.08
2023-03-20T23:59:31.539Z,34.90
